Time;durP1;ratioP1;P1;durP2;ratioP2;P2;SDS_P1;SDS_P2;PMS_P1;PMS_P2;Temp;Humidity;BMP_temperature;BMP_pressure;BME280_temperature;BME280_humidity;BME280_pressure;Samples;Min_cycle;Max_cycle;Signal;HPM_P1;HPM_P2
2021/06/09 00:01:12;;;;;;;4.93;1.00;;;23.00;53.30;;;;;;5122287;28;20042;-32
2021/06/09 00:03:38;;;;;;;2.58;0.80;;;23.00;54.40;;;;;;5122529;28;20070;-32
2021/06/09 00:06:05;;;;;;;1.05;0.82;;;23.00;55.10;;;;;;5122427;28;20069;-33
2021/06/09 00:08:31;;;;;;;2.42;1.00;;;22.90;55.70;;;;;;5122854;28;20028;-33
2021/06/09 00:10:57;;;;;;;1.98;0.90;;;23.00;56.80;;;;;;5120553;28;20031;-33
2021/06/09 00:13:27;;;;;;;1.95;0.88;;;23.00;57.00;;;;;;5122320;28;20052;-33
2021/06/09 00:15:55;;;;;;;2.67;1.05;;;23.00;57.50;;;;;;5122032;28;20031;-33
2021/06/09 00:18:21;;;;;;;1.73;1.00;;;23.00;57.80;;;;;;5121422;28;20031;-33
2021/06/09 00:20:47;;;;;;;1.55;1.08;;;23.00;58.20;;;;;;5121726;28;20023;-33
2021/06/09 00:23:17;;;;;;;1.20;0.93;;;23.00;58.90;;;;;;5122966;28;20111;-32
2021/06/09 00:25:49;;;;;;;2.17;1.65;;;23.10;59.30;;;;;;5117575;28;20032;-32
2021/06/09 00:28:15;;;;;;;2.47;0.90;;;23.10;59.50;;;;;;5119114;28;20031;-33
2021/06/09 00:30:41;;;;;;;1.58;0.68;;;23.10;60.00;;;;;;5121482;28;20023;-33
2021/06/09 00:33:07;;;;;;;1.55;1.10;;;23.10;60.20;;;;;;5121706;28;20063;-33
2021/06/09 00:35:34;;;;;;;1.75;1.00;;;23.10;59.50;;;;;;5121702;28;20024;-33
2021/06/09 00:38:00;;;;;;;1.58;1.00;;;23.10;60.90;;;;;;5121835;28;20028;-33
2021/06/09 00:40:26;;;;;;;1.67;0.98;;;23.20;60.00;;;;;;5122410;28;20031;-33
2021/06/09 00:43:04;;;;;;;1.20;1.07;;;23.20;60.30;;;;;;5122290;28;20031;-33
2021/06/09 00:45:30;;;;;;;1.63;0.98;;;23.20;60.60;;;;;;5121955;28;20289;-33
2021/06/09 00:47:56;;;;;;;3.67;1.10;;;23.20;60.50;;;;;;5120668;28;20051;-33
2021/06/09 00:50:22;;;;;;;2.22;1.00;;;23.20;60.70;;;;;;5118941;28;20051;-33
2021/06/09 00:52:49;;;;;;;2.35;1.25;;;23.20;60.90;;;;;;5120778;28;20024;-32
2021/06/09 00:55:15;;;;;;;2.05;1.08;;;23.20;61.00;;;;;;5119227;28;20077;-33
2021/06/09 00:57:42;;;;;;;2.13;0.97;;;23.30;61.70;;;;;;5123105;28;20043;-33
2021/06/09 01:00:12;;;;;;;1.75;1.00;;;23.30;62.00;;;;;;5121054;28;20264;-34
2021/06/09 01:02:38;;;;;;;1.17;0.73;;;23.30;61.80;;;;;;5123132;28;20119;-32
2021/06/09 01:05:05;;;;;;;1.10;0.85;;;23.30;62.20;;;;;;5120427;28;20027;-33
2021/06/09 01:07:38;;;;;;;2.47;1.05;;;23.30;62.30;;;;;;5122946;28;20069;-32
2021/06/09 01:10:05;;;;;;;3.10;1.05;;;23.30;62.40;;;;;;5121030;28;20031;-33
2021/06/09 01:12:32;;;;;;;1.35;0.93;;;23.30;62.40;;;;;;5122671;28;20036;-33
2021/06/09 01:14:59;;;;;;;1.52;0.90;;;23.30;62.60;;;;;;5121085;28;20028;-33
2021/06/09 01:17:26;;;;;;;1.20;1.00;;;23.30;62.20;;;;;;5122411;28;20421;-33
2021/06/09 01:19:52;;;;;;;1.50;0.90;;;23.30;63.10;;;;;;5120835;28;20043;-33
2021/06/09 01:22:19;;;;;;;1.10;0.80;;;23.30;63.60;;;;;;5122177;28;20028;-33
2021/06/09 01:24:45;;;;;;;2.17;1.00;;;23.30;63.90;;;;;;5122764;28;20028;-32
2021/06/09 01:27:11;;;;;;;1.45;0.90;;;23.30;63.90;;;;;;5122498;28;20046;-33
2021/06/09 01:29:37;;;;;;;1.25;0.75;;;23.30;63.80;;;;;;5122149;28;20032;-33
2021/06/09 01:32:04;;;;;;;1.25;0.93;;;23.30;64.20;;;;;;5122792;28;20046;-33
2021/06/09 01:34:30;;;;;;;0.85;0.63;;;23.30;64.20;;;;;;5125023;28;20093;-33
2021/06/09 01:36:56;;;;;;;0.98;0.85;;;23.30;64.50;;;;;;5108405;28;20115;-33
2021/06/09 01:39:22;;;;;;;1.70;0.85;;;23.30;64.20;;;;;;5126545;28;20039;-33
2021/06/09 01:41:49;;;;;;;1.85;0.80;;;23.30;64.30;;;;;;5126307;28;20047;-33
2021/06/09 01:44:16;;;;;;;1.27;0.82;;;23.30;64.50;;;;;;5124878;28;20034;-33
2021/06/09 01:46:42;;;;;;;1.60;1.02;;;23.30;64.20;;;;;;5124800;28;20500;-33
2021/06/09 01:49:12;;;;;;;0.80;0.80;;;23.30;64.20;;;;;;5125929;28;20146;-33
2021/06/09 01:51:38;;;;;;;0.82;0.60;;;23.40;64.10;;;;;;5125552;28;20032;-34
2021/06/09 01:54:06;;;;;;;1.00;0.70;;;23.40;64.80;;;;;;5126274;28;20044;-33
2021/06/09 01:56:32;;;;;;;1.15;0.80;;;23.40;63.90;;;;;;5126146;28;20594;-33
2021/06/09 01:59:08;;;;;;;1.27;1.00;;;23.40;64.00;;;;;;5125809;28;20684;-33
2021/06/09 02:01:34;;;;;;;0.93;0.90;;;23.40;64.20;;;;;;5126149;28;20582;-33
2021/06/09 02:04:00;;;;;;;1.20;0.88;;;23.40;64.10;;;;;;5125595;28;20036;-33
2021/06/09 02:06:27;;;;;;;1.23;0.80;;;23.40;64.10;;;;;;5125020;28;20031;-34
2021/06/09 02:08:53;;;;;;;3.90;0.90;;;23.40;64.10;;;;;;5103861;28;20054;-33
2021/06/09 02:11:19;;;;;;;0.95;0.70;;;23.40;64.20;;;;;;5104266;28;20020;-33
2021/06/09 02:13:46;;;;;;;0.80;0.65;;;23.40;64.20;;;;;;5117320;28;20043;-33
2021/06/09 02:16:12;;;;;;;2.00;0.68;;;23.40;64.30;;;;;;5104049;28;20024;-33
2021/06/09 02:18:38;;;;;;;0.80;0.70;;;23.40;65.10;;;;;;5115648;28;20019;-33
2021/06/09 02:21:05;;;;;;;0.82;0.63;;;23.40;64.90;;;;;;5124494;28;20024;-33
2021/06/09 02:23:32;;;;;;;0.93;0.80;;;23.50;65.40;;;;;;5125284;28;20035;-32
2021/06/09 02:25:59;;;;;;;0.70;0.50;;;23.40;65.40;;;;;;5125765;28;20032;-33
2021/06/09 02:28:31;;;;;;;0.95;0.70;;;23.40;65.10;;;;;;5125380;28;20036;-33
2021/06/09 02:30:58;;;;;;;1.10;0.63;;;23.40;65.90;;;;;;5124991;28;20479;-33
2021/06/09 02:33:24;;;;;;;1.37;0.80;;;23.40;65.30;;;;;;5125247;28;20036;-33
2021/06/09 02:35:51;;;;;;;1.52;1.13;;;23.40;65.30;;;;;;5125446;28;20035;-34
2021/06/09 02:38:19;;;;;;;1.48;0.80;;;23.40;65.50;;;;;;5125222;28;20027;-33
2021/06/09 02:40:47;;;;;;;0.88;0.70;;;23.40;65.30;;;;;;5125526;28;20054;-33
2021/06/09 02:43:14;;;;;;;1.13;1.02;;;23.40;65.50;;;;;;5124795;28;20638;-32
2021/06/09 02:45:40;;;;;;;0.82;0.60;;;23.50;65.10;;;;;;5124122;28;20035;-33
2021/06/09 02:48:12;;;;;;;0.60;0.60;;;23.50;65.00;;;;;;5124222;28;20104;-33
2021/06/09 02:50:38;;;;;;;0.73;0.73;;;23.40;64.80;;;;;;5124616;28;20057;-33
2021/06/09 02:53:17;;;;;;;0.77;0.53;;;23.50;64.90;;;;;;5124414;28;20039;-33
2021/06/09 02:56:06;;;;;;;0.70;0.43;;;23.50;64.90;;;;;;5124876;28;20027;-33
2021/06/09 02:58:58;;;;;;;1.00;0.63;;;23.50;64.90;;;;;;5123211;28;20031;-33
2021/06/09 03:01:27;;;;;;;0.63;0.50;;;23.50;65.10;;;;;;5123173;28;20074;-33
2021/06/09 03:04:31;;;;;;;1.17;0.70;;;23.50;65.20;;;;;;5123297;28;20055;-33
2021/06/09 03:07:28;;;;;;;1.13;0.50;;;23.50;65.30;;;;;;5041344;28;20049;-33
2021/06/09 03:10:15;;;;;;;0.93;0.70;;;23.50;65.30;;;;;;5040511;28;20124;-41
2021/06/09 03:12:46;;;;;;;0.90;0.70;;;23.50;65.20;;;;;;5041200;28;20025;-40
2021/06/09 03:15:34;;;;;;;0.60;0.60;;;23.50;65.40;;;;;;5041396;28;20033;-41
2021/06/09 03:18:07;;;;;;;0.70;0.60;;;23.50;65.50;;;;;;5024015;28;20525;-40
2021/06/09 03:21:00;;;;;;;1.00;0.63;;;23.50;65.60;;;;;;5035252;28;20540;-40
2021/06/09 03:23:50;;;;;;;0.88;0.70;;;23.50;65.50;;;;;;5023715;28;20057;-41
2021/06/09 03:26:38;;;;;;;0.50;0.50;;;23.50;65.80;;;;;;5041118;28;20052;-42
2021/06/09 03:29:09;;;;;;;1.45;0.43;;;23.50;66.10;;;;;;5040858;28;20041;-41
2021/06/09 03:31:47;;;;;;;0.55;0.50;;;23.50;66.80;;;;;;5040110;28;20455;-40
2021/06/09 03:34:20;;;;;;;0.73;0.73;;;23.50;66.30;;;;;;5022542;28;20034;-39
2021/06/09 03:36:46;;;;;;;1.30;0.50;;;23.40;66.80;;;;;;5024063;28;20037;-41
2021/06/09 03:39:12;;;;;;;1.08;0.50;;;23.50;66.80;;;;;;5023897;28;20667;-41
2021/06/09 03:41:43;;;;;;;0.70;0.50;;;23.50;66.60;;;;;;5036453;28;20040;-41
2021/06/09 03:44:10;;;;;;;1.17;0.63;;;23.50;66.60;;;;;;5122370;28;20291;-42
2021/06/09 03:46:37;;;;;;;1.38;0.50;;;23.50;67.00;;;;;;5104402;28;20742;-39
2021/06/09 03:49:03;;;;;;;0.57;0.43;;;23.50;66.80;;;;;;5121561;28;20032;-41
2021/06/09 03:51:30;;;;;;;0.68;0.60;;;23.40;66.50;;;;;;5121354;28;20032;-40
2021/06/09 03:53:58;;;;;;;0.60;0.50;;;23.50;66.20;;;;;;5122376;28;20049;-41
2021/06/09 03:56:25;;;;;;;0.93;0.75;;;23.50;66.00;;;;;;5123229;28;20051;-41
2021/06/09 03:58:51;;;;;;;1.27;0.70;;;23.50;65.90;;;;;;5105061;28;20027;-42
2021/06/09 04:01:17;;;;;;;2.17;0.40;;;23.40;65.90;;;;;;5122118;28;20030;-41
2021/06/09 04:03:44;;;;;;;0.77;0.43;;;23.50;66.00;;;;;;5105175;28;20053;-41
2021/06/09 04:06:14;;;;;;;1.08;0.60;;;23.50;66.00;;;;;;5122048;28;20053;-41
2021/06/09 04:08:43;;;;;;;0.55;0.50;;;23.50;65.90;;;;;;5122008;28;20058;-41
2021/06/09 04:11:10;;;;;;;0.80;0.60;;;23.50;65.90;;;;;;5122229;28;20045;-41
2021/06/09 04:13:37;;;;;;;0.70;0.32;;;23.50;66.00;;;;;;5104623;28;20032;-41
2021/06/09 04:16:04;;;;;;;1.23;0.60;;;23.40;65.90;;;;;;5086598;28;20042;-41
2021/06/09 04:18:30;;;;;;;0.52;0.45;;;23.50;66.10;;;;;;5110474;28;20047;-40
2021/06/09 04:20:58;;;;;;;0.80;0.50;;;23.50;66.00;;;;;;5104763;28;20020;-41
2021/06/09 04:23:24;;;;;;;0.50;0.50;;;23.50;65.90;;;;;;5121038;28;20498;-41
2021/06/09 04:25:50;;;;;;;0.63;0.55;;;23.50;66.00;;;;;;5121817;28;20039;-41
2021/06/09 04:28:20;;;;;;;0.40;0.40;;;23.50;66.60;;;;;;5123024;28;20035;-41
2021/06/09 04:30:47;;;;;;;0.60;0.52;;;23.50;66.50;;;;;;5120911;28;20016;-41
2021/06/09 04:33:13;;;;;;;;;;;23.40;66.40;;;;;;5105081;28;20054;-40
2021/06/09 04:35:45;;;;;;;1.25;0.50;;;23.40;66.90;;;;;;5122832;28;19912;-41
2021/06/09 04:38:13;;;;;;;0.40;0.40;;;23.40;66.60;;;;;;5120404;28;20028;-40
2021/06/09 04:40:39;;;;;;;0.70;0.45;;;23.40;66.60;;;;;;5119439;28;20023;-40
2021/06/09 04:43:05;;;;;;;1.67;0.60;;;23.40;66.80;;;;;;5122677;28;20035;-40
2021/06/09 04:45:31;;;;;;;0.40;0.40;;;23.40;66.90;;;;;;5120516;28;20071;-41
2021/06/09 04:47:58;;;;;;;0.68;0.50;;;23.40;66.90;;;;;;5121504;28;20119;-40
2021/06/09 04:50:25;;;;;;;1.30;0.97;;;23.40;66.70;;;;;;5121406;28;20027;-41
2021/06/09 04:52:52;;;;;;;0.50;0.50;;;23.40;66.90;;;;;;5119834;28;20843;-41
2021/06/09 04:55:18;;;;;;;;;;;23.40;67.00;;;;;;5122844;28;20468;-40
2021/06/09 04:57:45;;;;;;;0.63;0.40;;;23.40;66.70;;;;;;5120928;28;19941;-40
2021/06/09 05:00:13;;;;;;;0.40;0.40;;;23.40;67.10;;;;;;5120202;28;20053;-41
2021/06/09 05:02:39;;;;;;;0.85;0.43;;;23.40;67.30;;;;;;5119413;28;20036;-41
2021/06/09 05:05:05;;;;;;;0.95;0.75;;;23.40;67.10;;;;;;5121466;28;20019;-41
2021/06/09 05:07:32;;;;;;;0.80;0.70;;;23.40;67.50;;;;;;5122486;28;20032;-42
2021/06/09 05:09:58;;;;;;;0.65;0.47;;;23.40;67.30;;;;;;5125975;28;20031;-41
2021/06/09 05:12:28;;;;;;;0.40;0.40;;;23.40;67.20;;;;;;5123933;28;20047;-43
2021/06/09 05:14:55;;;;;;;0.50;0.40;;;23.40;67.40;;;;;;5124713;28;20066;-41
2021/06/09 05:17:27;;;;;;;0.50;0.50;;;23.40;68.10;;;;;;5124288;28;20554;-41
2021/06/09 05:19:53;;;;;;;0.70;0.70;;;23.40;68.20;;;;;;5125456;28;20036;-41
2021/06/09 05:22:30;;;;;;;0.65;0.65;;;23.40;68.50;;;;;;5124567;28;20051;-40
2021/06/09 05:24:56;;;;;;;0.60;0.60;;;23.40;68.50;;;;;;5122287;28;20031;-40
2021/06/09 05:27:22;;;;;;;0.60;0.55;;;23.40;68.30;;;;;;5107485;28;20043;-41
2021/06/09 05:29:48;;;;;;;0.50;0.50;;;23.40;68.60;;;;;;5106991;28;20020;-40
2021/06/09 05:32:15;;;;;;;1.05;0.63;;;23.40;68.40;;;;;;5107604;28;20095;-41
2021/06/09 05:34:41;;;;;;;0.60;0.55;;;23.40;68.70;;;;;;5119755;28;20087;-40
2021/06/09 05:37:09;;;;;;;0.70;0.60;;;23.40;68.60;;;;;;5123658;28;20055;-40
2021/06/09 05:39:38;;;;;;;1.05;0.50;;;23.40;68.40;;;;;;5107114;28;20032;-41
2021/06/09 05:42:14;;;;;;;1.17;0.50;;;23.40;68.20;;;;;;5125800;28;20036;-41
2021/06/09 05:44:43;;;;;;;0.90;0.63;;;23.40;68.20;;;;;;5125049;28;20023;-40
2021/06/09 05:47:10;;;;;;;0.60;0.60;;;23.40;68.30;;;;;;5123510;28;20027;-41
2021/06/09 05:49:36;;;;;;;0.80;0.60;;;23.40;68.30;;;;;;5124103;28;20049;-41
2021/06/09 05:52:03;;;;;;;3.20;0.50;;;23.40;68.20;;;;;;5125743;28;20031;-41
2021/06/09 05:54:34;;;;;;;0.60;0.52;;;23.40;68.30;;;;;;5123230;28;20016;-40
2021/06/09 05:57:04;;;;;;;0.77;0.60;;;23.40;68.20;;;;;;5123493;28;20130;-40
2021/06/09 05:59:30;;;;;;;0.75;0.60;;;23.40;68.30;;;;;;5125074;28;20114;-41
2021/06/09 06:01:57;;;;;;;0.68;0.65;;;23.40;68.30;;;;;;5125385;28;20031;-40
2021/06/09 06:04:23;;;;;;;0.40;0.40;;;23.40;68.40;;;;;;5123408;28;20096;-40
2021/06/09 06:06:49;;;;;;;0.75;0.40;;;23.40;68.40;;;;;;5123902;28;20035;-41
2021/06/09 06:09:16;;;;;;;0.52;0.52;;;23.40;68.70;;;;;;5124042;28;20028;-41
2021/06/09 06:11:42;;;;;;;0.50;0.50;;;23.30;68.70;;;;;;5123917;28;21051;-41
2021/06/09 06:14:11;;;;;;;0.50;0.50;;;23.30;68.60;;;;;;5122957;28;20040;-40
2021/06/09 06:16:38;;;;;;;0.73;0.60;;;23.30;68.80;;;;;;5120500;28;20743;-40
2021/06/09 06:19:05;;;;;;;0.50;0.50;;;23.30;68.70;;;;;;5123745;28;20031;-41
2021/06/09 06:21:31;;;;;;;0.50;0.50;;;23.30;68.60;;;;;;5124323;28;20031;-41
2021/06/09 06:23:58;;;;;;;0.93;0.53;;;23.30;68.80;;;;;;5123660;28;20307;-40
2021/06/09 06:26:24;;;;;;;0.50;0.50;;;23.30;69.00;;;;;;5124753;28;20287;-40
2021/06/09 06:28:52;;;;;;;0.50;0.50;;;23.30;68.90;;;;;;5120424;28;20049;-41
2021/06/09 06:31:26;;;;;;;0.60;0.60;;;23.30;68.80;;;;;;5124471;28;20032;-42
2021/06/09 06:33:54;;;;;;;0.55;0.50;;;23.30;68.80;;;;;;5120058;28;20053;-40
2021/06/09 06:36:22;;;;;;;0.57;0.57;;;23.30;68.70;;;;;;5122785;28;20095;-41
2021/06/09 06:38:49;;;;;;;0.50;0.45;;;23.30;68.80;;;;;;5124168;28;20055;-41
2021/06/09 06:41:15;;;;;;;0.52;0.52;;;23.30;68.80;;;;;;5122867;28;20110;-40
2021/06/09 06:43:42;;;;;;;0.50;0.50;;;23.30;68.70;;;;;;5122875;28;20038;-41
2021/06/09 06:46:14;;;;;;;0.63;0.60;;;23.30;68.60;;;;;;5123844;28;20072;-42
2021/06/09 06:48:40;;;;;;;0.80;0.60;;;23.30;68.80;;;;;;5121574;28;20024;-41
2021/06/09 06:51:08;;;;;;;0.40;0.38;;;23.30;68.80;;;;;;5123399;28;20019;-42
2021/06/09 06:53:34;;;;;;;0.60;0.50;;;23.30;68.90;;;;;;5121709;28;20031;-41
2021/06/09 06:56:01;;;;;;;0.60;0.60;;;23.30;68.90;;;;;;5122697;28;20115;-42
2021/06/09 06:58:31;;;;;;;0.40;0.40;;;23.30;69.00;;;;;;5122753;28;20035;-40
2021/06/09 07:00:58;;;;;;;0.60;0.60;;;23.30;69.10;;;;;;5120269;28;20440;-40
2021/06/09 07:03:24;;;;;;;0.63;0.63;;;23.30;69.10;;;;;;5119436;28;20028;-41
2021/06/09 07:05:51;;;;;;;1.07;0.60;;;23.30;69.40;;;;;;5123803;28;20040;-41
2021/06/09 07:08:17;;;;;;;0.57;0.50;;;23.20;69.30;;;;;;5122371;28;20031;-39
2021/06/09 07:10:43;;;;;;;0.50;0.50;;;23.20;69.60;;;;;;5105136;28;20027;-41
2021/06/09 07:13:09;;;;;;;0.70;0.63;;;23.20;69.40;;;;;;5123408;28;20034;-40
2021/06/09 07:15:39;;;;;;;0.70;0.70;;;23.20;69.50;;;;;;5120353;28;20038;-40
2021/06/09 07:18:05;;;;;;;0.55;0.50;;;23.20;69.40;;;;;;5121915;28;20031;-41
2021/06/09 07:20:31;;;;;;;0.43;0.43;;;23.20;69.50;;;;;;5105450;28;20095;-41
2021/06/09 07:22:58;;;;;;;0.82;0.60;;;23.20;69.50;;;;;;5105218;28;20054;-39
2021/06/09 07:25:25;;;;;;;0.63;0.63;;;23.20;69.30;;;;;;5122002;28;20032;-41
2021/06/09 07:27:53;;;;;;;0.55;0.55;;;23.20;69.40;;;;;;5121400;28;20043;-41
2021/06/09 07:30:21;;;;;;;0.88;0.50;;;23.20;69.30;;;;;;5122506;28;20027;-40
2021/06/09 07:32:47;;;;;;;0.60;0.50;;;23.20;69.50;;;;;;5121603;28;20032;-41
2021/06/09 07:35:14;;;;;;;0.50;0.50;;;23.20;69.40;;;;;;5123470;28;20035;-41
2021/06/09 07:37:45;;;;;;;0.63;0.50;;;23.20;69.50;;;;;;5123123;28;20031;-41
2021/06/09 07:40:22;;;;;;;0.75;0.45;;;23.20;69.40;;;;;;5121069;28;20031;-41
2021/06/09 07:42:50;;;;;;;0.75;0.55;;;23.20;69.60;;;;;;5122310;28;20567;-41
2021/06/09 07:45:18;;;;;;;0.65;0.57;;;23.20;69.50;;;;;;5121376;28;20091;-42
2021/06/09 07:47:46;;;;;;;0.45;0.45;;;23.20;69.50;;;;;;5104025;28;20093;-40
2021/06/09 07:50:13;;;;;;;0.65;0.60;;;23.20;69.60;;;;;;5121217;28;20504;-40
2021/06/09 07:52:41;;;;;;;0.52;0.50;;;23.20;69.60;;;;;;5120344;28;20560;-42
2021/06/09 07:55:07;;;;;;;0.57;0.57;;;23.20;69.60;;;;;;5121079;28;20653;-41
2021/06/09 07:57:35;;;;;;;0.68;0.57;;;23.20;69.90;;;;;;5121098;28;20046;-41
2021/06/09 08:00:03;;;;;;;0.70;0.70;;;23.20;69.70;;;;;;5121743;28;20511;-42
2021/06/09 08:02:34;;;;;;;0.75;0.70;;;23.20;70.00;;;;;;5122647;28;20032;-41
2021/06/09 08:05:02;;;;;;;1.60;0.80;;;23.20;70.20;;;;;;5121069;28;20042;-41
2021/06/09 08:07:28;;;;;;;0.80;0.65;;;23.20;70.00;;;;;;5122813;28;20045;-41
2021/06/09 08:09:54;;;;;;;0.73;0.63;;;23.20;70.20;;;;;;5121042;28;20023;-40
2021/06/09 08:12:20;;;;;;;0.60;0.57;;;23.10;70.00;;;;;;5122347;28;20055;-40
2021/06/09 08:14:47;;;;;;;0.55;0.52;;;23.20;69.90;;;;;;5120703;28;20031;-42
2021/06/09 08:17:13;;;;;;;0.40;0.40;;;23.20;69.80;;;;;;5115410;28;20105;-42
2021/06/09 08:19:39;;;;;;;0.70;0.57;;;23.10;69.80;;;;;;5120415;28;20023;-40
2021/06/09 08:22:06;;;;;;;0.80;0.60;;;23.10;69.70;;;;;;5121943;28;20039;-41
2021/06/09 08:24:32;;;;;;;0.63;0.57;;;23.20;69.90;;;;;;5122192;28;20038;-41
2021/06/09 08:27:03;;;;;;;0.63;0.60;;;23.10;69.80;;;;;;5121930;28;20035;-38
2021/06/09 08:29:30;;;;;;;0.60;0.60;;;23.10;69.90;;;;;;5121991;28;20049;-41
2021/06/09 08:31:57;;;;;;;0.70;0.65;;;23.10;69.90;;;;;;5121575;28;20019;-41
2021/06/09 08:34:23;;;;;;;0.57;0.57;;;23.10;69.80;;;;;;5123217;28;20023;-41
2021/06/09 08:36:51;;;;;;;0.60;0.60;;;23.10;69.80;;;;;;5120843;28;20069;-40
2021/06/09 08:39:21;;;;;;;0.93;0.60;;;23.10;69.80;;;;;;5119938;28;20023;-40
2021/06/09 08:41:47;;;;;;;0.57;0.57;;;23.10;70.10;;;;;;5121111;28;20043;-39
2021/06/09 08:44:13;;;;;;;0.68;0.40;;;23.10;70.10;;;;;;5121830;28;20016;-41
2021/06/09 08:46:39;;;;;;;0.50;0.50;;;23.10;70.40;;;;;;5102186;28;20031;-41
2021/06/09 08:49:06;;;;;;;0.50;0.50;;;23.10;70.40;;;;;;5118967;28;20030;-41
2021/06/09 08:51:33;;;;;;;0.40;0.40;;;23.10;70.30;;;;;;5121879;28;20060;-40
2021/06/09 08:53:59;;;;;;;0.63;0.63;;;23.10;70.30;;;;;;5121226;28;20092;-41
2021/06/09 08:56:25;;;;;;;0.65;0.50;;;23.10;70.50;;;;;;5103848;28;20055;-41
2021/06/09 08:58:52;;;;;;;0.68;0.65;;;23.10;70.40;;;;;;5122097;28;20019;-41
2021/06/09 09:01:18;;;;;;;0.47;0.47;;;23.10;70.60;;;;;;5122403;28;20484;-40
2021/06/09 09:03:46;;;;;;;0.55;0.55;;;23.10;70.40;;;;;;5121871;28;20028;-41
2021/06/09 09:06:12;;;;;;;0.60;0.60;;;23.10;70.60;;;;;;5117969;28;20427;-41
2021/06/09 09:08:39;;;;;;;0.50;0.50;;;23.10;70.40;;;;;;5120413;28;20030;-42
2021/06/09 09:11:05;;;;;;;0.75;0.75;;;23.10;70.40;;;;;;5120050;28;20027;-40
2021/06/09 09:13:34;;;;;;;0.55;0.55;;;23.10;70.30;;;;;;5121067;28;20114;-41
2021/06/09 09:16:00;;;;;;;0.60;0.60;;;23.10;70.50;;;;;;5122171;28;20020;-41
2021/06/09 09:19:04;;;;;;;0.60;0.60;;;23.10;70.30;;;;;;5121268;28;20035;-41
2021/06/09 09:21:41;;;;;;;0.60;0.60;;;23.10;70.30;;;;;;5120484;28;20106;-41
2021/06/09 09:24:09;;;;;;;1.02;0.70;;;23.10;70.40;;;;;;5120045;28;20028;-41
2021/06/09 09:26:36;;;;;;;0.40;0.40;;;23.10;70.40;;;;;;5121860;28;20038;-41
2021/06/09 09:29:18;;;;;;;0.60;0.60;;;23.10;70.50;;;;;;5121270;28;20067;-41
2021/06/09 09:31:54;;;;;;;0.50;0.50;;;23.10;70.60;;;;;;5117835;28;20032;-41
2021/06/09 09:34:37;;;;;;;0.50;0.40;;;23.10;70.60;;;;;;5120729;28;20024;-40
2021/06/09 09:37:03;;;;;;;0.60;0.60;;;23.10;70.70;;;;;;5121569;28;20011;-40
2021/06/09 09:39:35;;;;;;;0.47;0.47;;;23.10;70.90;;;;;;5120858;28;20036;-41
2021/06/09 09:42:33;;;;;;;0.50;0.50;;;23.10;70.80;;;;;;5121735;28;20019;-42
2021/06/09 09:45:16;;;;;;;0.40;0.40;;;23.10;70.80;;;;;;5119543;28;20034;-42
2021/06/09 09:47:42;;;;;;;0.50;0.50;;;23.10;71.10;;;;;;5120803;28;20044;-40
2021/06/09 09:50:09;;;;;;;0.40;0.40;;;23.10;71.00;;;;;;5121012;28;20024;-41
2021/06/09 09:52:48;;;;;;;0.50;0.50;;;23.10;70.90;;;;;;5102864;28;20033;-40
2021/06/09 09:55:15;;;;;;;0.40;0.40;;;23.10;70.70;;;;;;5124894;28;20164;-41
2021/06/09 09:57:41;;;;;;;0.43;0.40;;;23.10;71.00;;;;;;5124640;28;20044;-41
2021/06/09 10:00:08;;;;;;;0.50;0.40;;;23.10;70.90;;;;;;5124864;28;20063;-40
2021/06/09 10:02:34;;;;;;;;;;;23.10;70.80;;;;;;5125065;28;20032;-39
2021/06/09 10:05:13;;;;;;;0.60;0.60;;;23.10;70.80;;;;;;5124561;28;19965;-40
2021/06/09 10:07:40;;;;;;;0.45;0.45;;;23.10;70.70;;;;;;5124182;28;20067;-40
2021/06/09 10:10:06;;;;;;;0.50;0.50;;;23.10;70.80;;;;;;5122901;28;20126;-41
2021/06/09 10:12:33;;;;;;;0.40;0.40;;;23.10;71.00;;;;;;5125056;28;20081;-40
2021/06/09 10:14:59;;;;;;;0.40;0.40;;;23.00;70.90;;;;;;5124714;28;20036;-40
2021/06/09 10:17:27;;;;;;;0.67;0.40;;;23.00;70.90;;;;;;5119725;28;20039;-40
2021/06/09 10:20:00;;;;;;;0.40;0.40;;;23.00;70.80;;;;;;5123844;28;20067;-41
2021/06/09 10:22:33;;;;;;;0.30;0.30;;;23.10;70.90;;;;;;5124820;28;20034;-40
2021/06/09 10:25:07;;;;;;;0.30;0.30;;;23.10;70.90;;;;;;5123915;27;20038;-40
2021/06/09 10:27:36;;;;;;;0.50;0.50;;;23.00;70.90;;;;;;5124466;28;20031;-42
2021/06/09 10:30:09;;;;;;;0.75;0.43;;;23.10;71.10;;;;;;5123520;28;20027;-41
2021/06/09 10:32:35;;;;;;;0.65;0.57;;;23.00;71.20;;;;;;5124465;28;20028;-41
2021/06/09 10:35:01;;;;;;;0.40;0.40;;;23.00;71.10;;;;;;5105545;28;20518;-41
2021/06/09 10:37:27;;;;;;;0.55;0.28;;;23.00;71.30;;;;;;5122895;28;20031;-40
2021/06/09 10:39:53;;;;;;;1.48;0.30;;;23.00;71.20;;;;;;5122525;28;20031;-40
2021/06/09 10:42:20;;;;;;;0.30;0.30;;;23.00;71.40;;;;;;5123571;28;20027;-40
2021/06/09 10:44:47;;;;;;;1.08;0.40;;;23.00;71.40;;;;;;5123803;28;20031;-40
2021/06/09 10:47:14;;;;;;;0.95;0.50;;;23.00;71.40;;;;;;5124138;28;20043;-40
2021/06/09 10:49:41;;;;;;;0.50;0.40;;;23.00;71.30;;;;;;5121995;28;20031;-40
2021/06/09 10:52:08;;;;;;;0.43;0.43;;;23.00;71.20;;;;;;5123810;28;20104;-41
2021/06/09 10:54:34;;;;;;;0.40;0.40;;;23.00;71.10;;;;;;5123696;27;20087;-40
2021/06/09 10:57:00;;;;;;;0.40;0.40;;;23.00;71.30;;;;;;5123796;28;20044;-40
2021/06/09 10:59:28;;;;;;;0.47;0.40;;;23.00;71.00;;;;;;5123291;28;20023;-40
2021/06/09 11:02:01;;;;;;;0.30;0.30;;;23.00;71.10;;;;;;5123885;28;20024;-40
2021/06/09 11:04:28;;;;;;;0.50;0.50;;;23.00;71.20;;;;;;5120682;28;20027;-40
2021/06/09 11:06:55;;;;;;;0.30;0.30;;;23.00;71.10;;;;;;5122291;28;20044;-40
2021/06/09 11:09:28;;;;;;;0.47;0.43;;;23.00;71.10;;;;;;5122667;28;20028;-40
2021/06/09 11:12:24;;;;;;;0.40;0.40;;;23.00;71.20;;;;;;5120247;28;20035;-40
2021/06/09 11:14:54;;;;;;;0.30;0.30;;;23.00;71.40;;;;;;5110210;28;20031;-39
2021/06/09 11:17:43;;;;;;;0.43;0.43;;;23.00;71.20;;;;;;5123332;28;20056;-40
2021/06/09 11:20:34;;;;;;;0.68;0.40;;;23.00;71.50;;;;;;5122892;28;20372;-40
2021/06/09 11:23:02;;;;;;;0.28;0.28;;;23.00;71.70;;;;;;5121361;28;20031;-40
2021/06/09 11:25:40;;;;;;;0.70;0.30;;;23.00;71.50;;;;;;5122447;28;20027;-40
2021/06/09 11:28:18;;;;;;;0.40;0.40;;;23.00;71.80;;;;;;5119603;28;20076;-40
2021/06/09 11:31:00;;;;;;;0.35;0.35;;;23.00;71.60;;;;;;5119253;28;20131;-42
2021/06/09 11:33:40;;;;;;;0.50;0.50;;;23.00;71.50;;;;;;5122255;28;20043;-38
2021/06/09 11:36:18;;;;;;;0.40;0.40;;;23.00;71.50;;;;;;5119887;28;20020;-40
2021/06/09 11:38:55;;;;;;;0.40;0.40;;;23.00;71.60;;;;;;5121751;28;20058;-40
2021/06/09 11:41:28;;;;;;;0.30;0.30;;;23.00;71.60;;;;;;5121281;28;20023;-40
2021/06/09 11:43:58;;;;;;;0.35;0.30;;;23.00;71.50;;;;;;5122704;28;20032;-40
2021/06/09 11:46:29;;;;;;;0.75;0.40;;;23.00;71.50;;;;;;5121813;28;20069;-39
2021/06/09 11:48:56;;;;;;;0.30;0.30;;;23.00;71.50;;;;;;5122593;28;20086;-39
2021/06/09 11:51:31;;;;;;;1.73;0.30;;;23.00;71.50;;;;;;5122548;28;20627;-40
2021/06/09 11:54:17;;;;;;;0.30;0.30;;;23.00;71.50;;;;;;5122698;28;20088;-41
2021/06/09 11:56:47;;;;;;;0.47;0.45;;;23.00;71.40;;;;;;5118789;28;20055;-40
2021/06/09 11:59:40;;;;;;;0.38;0.38;;;23.00;71.60;;;;;;5122088;28;20032;-40
2021/06/09 12:02:25;;;;;;;0.40;0.40;;;23.00;71.50;;;;;;5115658;28;20046;-39
2021/06/09 12:04:53;;;;;;;0.40;0.40;;;23.00;71.60;;;;;;5122248;28;20036;-41
2021/06/09 12:07:26;;;;;;;0.40;0.35;;;23.00;71.70;;;;;;5122251;28;20717;-40
2021/06/09 12:10:17;;;;;;;0.40;0.40;;;23.00;71.70;;;;;;5119726;28;20060;-40
2021/06/09 12:12:43;;;;;;;0.40;0.40;;;23.00;71.80;;;;;;5118686;28;20043;-40
2021/06/09 12:15:10;;;;;;;0.40;0.40;;;23.00;71.90;;;;;;5121596;28;20030;-39
2021/06/09 12:17:41;;;;;;;0.30;0.30;;;23.00;71.80;;;;;;5120677;28;20059;-40
2021/06/09 12:20:08;;;;;;;0.40;0.40;;;23.00;71.90;;;;;;5119094;28;20030;-40
2021/06/09 12:22:39;;;;;;;1.60;0.30;;;23.00;71.90;;;;;;5122073;28;20177;-39
2021/06/09 12:25:14;;;;;;;0.57;0.40;;;23.00;71.80;;;;;;5122332;28;20034;-40
2021/06/09 12:27:42;;;;;;;0.40;0.40;;;23.00;72.00;;;;;;5121255;28;20046;-40
2021/06/09 12:30:09;;;;;;;0.40;0.40;;;23.00;71.90;;;;;;5122000;28;20061;-40
2021/06/09 12:32:37;;;;;;;0.40;0.40;;;23.00;71.90;;;;;;5122099;28;20031;-39
2021/06/09 12:35:06;;;;;;;0.30;0.30;;;23.00;71.90;;;;;;5120942;28;20084;-39
2021/06/09 12:37:33;;;;;;;0.30;0.30;;;23.10;71.90;;;;;;5121067;28;20504;-39
2021/06/09 12:40:09;;;;;;;;;;;23.10;71.80;;;;;;5122394;28;20023;-37
2021/06/09 12:42:36;;;;;;;0.30;0.30;;;23.10;71.60;;;;;;5121850;28;19912;-39
2021/06/09 12:45:09;;;;;;;0.30;0.30;;;23.10;71.60;;;;;;5122009;28;20569;-38
2021/06/09 12:47:37;;;;;;;0.40;0.40;;;23.10;71.70;;;;;;5121106;28;20099;-40
2021/06/09 12:50:35;;;;;;;0.40;0.40;;;23.10;71.70;;;;;;5121299;28;20076;-39
2021/06/09 12:53:01;;;;;;;0.43;0.40;;;23.10;72.40;;;;;;5118791;28;20486;-39
2021/06/09 12:55:36;;;;;;;0.50;0.50;;;23.10;71.70;;;;;;5120638;28;20028;-39
2021/06/09 12:58:04;;;;;;;0.40;0.40;;;23.10;72.60;;;;;;5116595;28;20044;-39
2021/06/09 13:00:43;;;;;;;0.43;0.43;;;23.10;71.90;;;;;;5118491;28;20036;-39